sensor_id;sensor_type;location;lat;lon;timestamp;P1;durP1;ratioP1;P2;durP2;ratioP2
66437;SDS011;54537;47.972;11.662;2023-04-24T00:01:01;0.70;;;0.70;;
66437;SDS011;54537;47.972;11.662;2023-04-24T00:03:27;2.42;;;0.90;;
66437;SDS011;54537;47.972;11.662;2023-04-24T00:05:54;1.65;;;0.98;;
66437;SDS011;54537;47.972;11.662;2023-04-24T00:08:20;1.02;;;0.98;;
66437;SDS011;54537;47.972;11.662;2023-04-24T00:10:47;1.13;;;0.82;;
66437;SDS011;54537;47.972;11.662;2023-04-24T00:13:15;2.05;;;0.80;;
66437;SDS011;54537;47.972;11.662;2023-04-24T00:15:42;0.90;;;0.60;;
66437;SDS011;54537;47.972;11.662;2023-04-24T00:18:08;2.25;;;0.93;;
66437;SDS011;54537;47.972;11.662;2023-04-24T00:20:34;0.85;;;0.82;;
66437;SDS011;54537;47.972;11.662;2023-04-24T00:23:01;1.15;;;0.80;;
66437;SDS011;54537;47.972;11.662;2023-04-24T00:25:28;2.58;;;0.73;;
66437;SDS011;54537;47.972;11.662;2023-04-24T00:27:54;0.77;;;0.63;;
66437;SDS011;54537;47.972;11.662;2023-04-24T00:30:22;0.73;;;0.70;;
66437;SDS011;54537;47.972;11.662;2023-04-24T00:32:49;0.50;;;0.50;;
66437;SDS011;54537;47.972;11.662;2023-04-24T00:35:15;0.60;;;0.60;;
66437;SDS011;54537;47.972;11.662;2023-04-24T00:37:42;1.33;;;0.70;;
66437;SDS011;54537;47.972;11.662;2023-04-24T00:40:08;0.90;;;0.70;;
66437;SDS011;54537;47.972;11.662;2023-04-24T00:42:35;1.27;;;0.57;;
66437;SDS011;54537;47.972;11.662;2023-04-24T00:45:02;0.65;;;0.65;;
66437;SDS011;54537;47.972;11.662;2023-04-24T00:47:30;0.57;;;0.50;;
66437;SDS011;54537;47.972;11.662;2023-04-24T00:50:00;0.50;;;0.50;;
66437;SDS011;54537;47.972;11.662;2023-04-24T00:52:27;1.38;;;0.90;;
66437;SDS011;54537;47.972;11.662;2023-04-24T00:54:56;1.52;;;1.10;;
66437;SDS011;54537;47.972;11.662;2023-04-24T00:57:22;1.38;;;0.68;;
66437;SDS011;54537;47.972;11.662;2023-04-24T00:59:49;0.73;;;0.70;;
66437;SDS011;54537;47.972;11.662;2023-04-24T01:02:16;0.93;;;0.80;;
66437;SDS011;54537;47.972;11.662;2023-04-24T01:04:44;0.77;;;0.50;;
66437;SDS011;54537;47.972;11.662;2023-04-24T01:07:10;0.70;;;0.60;;
66437;SDS011;54537;47.972;11.662;2023-04-24T01:09:37;0.70;;;0.70;;
66437;SDS011;54537;47.972;11.662;2023-04-24T01:12:06;0.60;;;0.60;;
66437;SDS011;54537;47.972;11.662;2023-04-24T01:14:33;0.70;;;0.70;;
66437;SDS011;54537;47.972;11.662;2023-04-24T01:16:59;0.88;;;0.60;;
66437;SDS011;54537;47.972;11.662;2023-04-24T01:19:26;0.52;;;0.50;;
66437;SDS011;54537;47.972;11.662;2023-04-24T01:21:54;1.38;;;0.80;;
66437;SDS011;54537;47.972;11.662;2023-04-24T01:24:26;0.93;;;0.70;;
66437;SDS011;54537;47.972;11.662;2023-04-24T01:26:52;1.33;;;0.90;;
66437;SDS011;54537;47.972;11.662;2023-04-24T01:29:19;2.95;;;1.88;;
66437;SDS011;54537;47.972;11.662;2023-04-24T01:31:45;1.08;;;0.80;;
66437;SDS011;54537;47.972;11.662;2023-04-24T01:34:12;0.60;;;0.60;;
66437;SDS011;54537;47.972;11.662;2023-04-24T01:36:39;1.05;;;0.75;;
66437;SDS011;54537;47.972;11.662;2023-04-24T01:39:07;0.80;;;0.60;;
66437;SDS011;54537;47.972;11.662;2023-04-24T01:41:35;1.83;;;0.73;;
66437;SDS011;54537;47.972;11.662;2023-04-24T01:44:02;0.65;;;0.65;;
66437;SDS011;54537;47.972;11.662;2023-04-24T01:46:28;0.82;;;0.60;;
66437;SDS011;54537;47.972;11.662;2023-04-24T01:48:56;0.77;;;0.70;;
66437;SDS011;54537;47.972;11.662;2023-04-24T01:51:25;1.00;;;0.60;;
66437;SDS011;54537;47.972;11.662;2023-04-24T01:53:51;1.80;;;0.60;;
66437;SDS011;54537;47.972;11.662;2023-04-24T01:56:19;0.55;;;0.55;;
66437;SDS011;54537;47.972;11.662;2023-04-24T01:58:47;0.60;;;0.60;;
66437;SDS011;54537;47.972;11.662;2023-04-24T02:01:15;0.70;;;0.70;;
66437;SDS011;54537;47.972;11.662;2023-04-24T02:03:41;1.15;;;0.63;;
66437;SDS011;54537;47.972;11.662;2023-04-24T02:06:08;0.82;;;0.75;;
66437;SDS011;54537;47.972;11.662;2023-04-24T02:08:34;1.02;;;0.70;;
66437;SDS011;54537;47.972;11.662;2023-04-24T02:11:01;0.68;;;0.68;;
66437;SDS011;54537;47.972;11.662;2023-04-24T02:13:27;1.17;;;0.60;;
66437;SDS011;54537;47.972;11.662;2023-04-24T02:15:55;0.60;;;0.60;;
66437;SDS011;54537;47.972;11.662;2023-04-24T02:18:22;2.92;;;0.75;;
66437;SDS011;54537;47.972;11.662;2023-04-24T02:20:48;2.15;;;0.57;;
66437;SDS011;54537;47.972;11.662;2023-04-24T02:23:15;2.60;;;0.80;;
66437;SDS011;54537;47.972;11.662;2023-04-24T02:25:41;0.68;;;0.65;;
66437;SDS011;54537;47.972;11.662;2023-04-24T02:28:08;0.75;;;0.50;;
66437;SDS011;54537;47.972;11.662;2023-04-24T02:30:34;0.95;;;0.50;;
66437;SDS011;54537;47.972;11.662;2023-04-24T02:33:02;0.60;;;0.60;;
66437;SDS011;54537;47.972;11.662;2023-04-24T02:35:28;2.28;;;0.55;;
66437;SDS011;54537;47.972;11.662;2023-04-24T02:37:55;2.35;;;0.60;;
66437;SDS011;54537;47.972;11.662;2023-04-24T02:40:21;1.05;;;0.65;;
66437;SDS011;54537;47.972;11.662;2023-04-24T02:42:48;0.95;;;0.60;;
66437;SDS011;54537;47.972;11.662;2023-04-24T02:45:14;0.75;;;0.63;;
66437;SDS011;54537;47.972;11.662;2023-04-24T02:47:41;0.80;;;0.80;;
66437;SDS011;54537;47.972;11.662;2023-04-24T02:50:09;1.25;;;0.80;;
66437;SDS011;54537;47.972;11.662;2023-04-24T02:52:36;0.68;;;0.68;;
66437;SDS011;54537;47.972;11.662;2023-04-24T02:55:02;1.25;;;0.73;;
66437;SDS011;54537;47.972;11.662;2023-04-24T02:57:29;0.75;;;0.70;;
66437;SDS011;54537;47.972;11.662;2023-04-24T02:59:56;1.08;;;0.70;;
66437;SDS011;54537;47.972;11.662;2023-04-24T03:02:22;0.52;;;0.50;;
66437;SDS011;54537;47.972;11.662;2023-04-24T03:04:48;0.70;;;0.70;;
66437;SDS011;54537;47.972;11.662;2023-04-24T03:07:16;0.70;;;0.70;;
66437;SDS011;54537;47.972;11.662;2023-04-24T03:09:45;0.90;;;0.70;;
66437;SDS011;54537;47.972;11.662;2023-04-24T03:12:12;0.80;;;0.80;;
66437;SDS011;54537;47.972;11.662;2023-04-24T03:14:38;1.30;;;0.70;;
66437;SDS011;54537;47.972;11.662;2023-04-24T03:17:05;2.55;;;0.60;;
66437;SDS011;54537;47.972;11.662;2023-04-24T03:19:31;1.02;;;0.80;;
66437;SDS011;54537;47.972;11.662;2023-04-24T03:21:58;0.70;;;0.70;;
66437;SDS011;54537;47.972;11.662;2023-04-24T03:24:29;0.52;;;0.52;;
66437;SDS011;54537;47.972;11.662;2023-04-24T03:26:55;2.38;;;0.80;;
66437;SDS011;54537;47.972;11.662;2023-04-24T03:29:22;2.88;;;0.70;;
66437;SDS011;54537;47.972;11.662;2023-04-24T03:31:49;1.58;;;0.70;;
66437;SDS011;54537;47.972;11.662;2023-04-24T03:34:15;0.65;;;0.52;;
66437;SDS011;54537;47.972;11.662;2023-04-24T03:36:41;0.70;;;0.70;;
66437;SDS011;54537;47.972;11.662;2023-04-24T03:39:08;0.70;;;0.70;;
66437;SDS011;54537;47.972;11.662;2023-04-24T03:41:36;0.88;;;0.68;;
66437;SDS011;54537;47.972;11.662;2023-04-24T03:44:03;0.50;;;0.50;;
66437;SDS011;54537;47.972;11.662;2023-04-24T03:46:29;1.55;;;0.70;;
66437;SDS011;54537;47.972;11.662;2023-04-24T03:48:56;0.75;;;0.63;;
66437;SDS011;54537;47.972;11.662;2023-04-24T03:51:22;1.77;;;0.70;;
66437;SDS011;54537;47.972;11.662;2023-04-24T03:53:49;2.88;;;0.70;;
66437;SDS011;54537;47.972;11.662;2023-04-24T03:56:15;3.88;;;0.60;;
66437;SDS011;54537;47.972;11.662;2023-04-24T03:58:43;0.50;;;0.50;;
66437;SDS011;54537;47.972;11.662;2023-04-24T04:01:09;1.80;;;0.80;;
66437;SDS011;54537;47.972;11.662;2023-04-24T04:03:36;1.00;;;0.70;;
66437;SDS011;54537;47.972;11.662;2023-04-24T04:06:03;0.88;;;0.60;;
66437;SDS011;54537;47.972;11.662;2023-04-24T04:08:29;0.98;;;0.65;;
66437;SDS011;54537;47.972;11.662;2023-04-24T04:10:56;0.57;;;0.57;;
66437;SDS011;54537;47.972;11.662;2023-04-24T04:13:22;1.52;;;0.90;;
66437;SDS011;54537;47.972;11.662;2023-04-24T04:15:50;1.00;;;0.95;;
66437;SDS011;54537;47.972;11.662;2023-04-24T04:18:17;1.05;;;0.57;;
66437;SDS011;54537;47.972;11.662;2023-04-24T04:20:43;3.42;;;0.70;;
66437;SDS011;54537;47.972;11.662;2023-04-24T04:23:10;0.88;;;0.73;;
66437;SDS011;54537;47.972;11.662;2023-04-24T04:25:36;0.70;;;0.70;;
66437;SDS011;54537;47.972;11.662;2023-04-24T04:28:03;1.42;;;0.70;;
66437;SDS011;54537;47.972;11.662;2023-04-24T04:30:29;1.17;;;0.80;;
66437;SDS011;54537;47.972;11.662;2023-04-24T04:32:58;1.15;;;0.88;;
66437;SDS011;54537;47.972;11.662;2023-04-24T04:35:25;1.48;;;1.00;;
66437;SDS011;54537;47.972;11.662;2023-04-24T04:37:52;2.72;;;1.25;;
66437;SDS011;54537;47.972;11.662;2023-04-24T04:40:18;0.60;;;0.60;;
66437;SDS011;54537;47.972;11.662;2023-04-24T04:42:45;1.02;;;0.80;;
66437;SDS011;54537;47.972;11.662;2023-04-24T04:45:12;0.98;;;0.80;;
66437;SDS011;54537;47.972;11.662;2023-04-24T04:47:41;1.15;;;0.80;;
66437;SDS011;54537;47.972;11.662;2023-04-24T04:50:09;0.88;;;0.80;;
66437;SDS011;54537;47.972;11.662;2023-04-24T04:52:36;1.33;;;0.60;;
66437;SDS011;54537;47.972;11.662;2023-04-24T04:55:03;2.05;;;0.80;;
66437;SDS011;54537;47.972;11.662;2023-04-24T04:57:30;0.85;;;0.68;;
66437;SDS011;54537;47.972;11.662;2023-04-24T04:59:56;1.00;;;0.70;;
66437;SDS011;54537;47.972;11.662;2023-04-24T05:02:23;0.68;;;0.68;;
66437;SDS011;54537;47.972;11.662;2023-04-24T05:04:50;0.60;;;0.60;;
66437;SDS011;54537;47.972;11.662;2023-04-24T05:07:17;1.05;;;0.65;;
66437;SDS011;54537;47.972;11.662;2023-04-24T05:09:44;1.10;;;0.60;;
66437;SDS011;54537;47.972;11.662;2023-04-24T05:12:10;1.23;;;0.60;;
66437;SDS011;54537;47.972;11.662;2023-04-24T05:14:37;0.70;;;0.68;;
66437;SDS011;54537;47.972;11.662;2023-04-24T05:17:03;0.63;;;0.60;;
66437;SDS011;54537;47.972;11.662;2023-04-24T05:19:30;1.45;;;0.55;;
66437;SDS011;54537;47.972;11.662;2023-04-24T05:21:57;0.50;;;0.50;;
66437;SDS011;54537;47.972;11.662;2023-04-24T05:24:25;0.98;;;0.43;;
66437;SDS011;54537;47.972;11.662;2023-04-24T05:26:52;1.08;;;0.57;;
66437;SDS011;54537;47.972;11.662;2023-04-24T05:29:18;0.88;;;0.50;;
66437;SDS011;54537;47.972;11.662;2023-04-24T05:31:45;1.60;;;0.73;;
66437;SDS011;54537;47.972;11.662;2023-04-24T05:34:11;0.73;;;0.63;;
66437;SDS011;54537;47.972;11.662;2023-04-24T05:36:39;1.13;;;0.60;;
66437;SDS011;54537;47.972;11.662;2023-04-24T05:39:05;0.90;;;0.60;;
66437;SDS011;54537;47.972;11.662;2023-04-24T05:41:34;0.90;;;0.60;;
66437;SDS011;54537;47.972;11.662;2023-04-24T05:44:00;0.60;;;0.60;;
66437;SDS011;54537;47.972;11.662;2023-04-24T05:46:27;1.42;;;0.60;;
66437;SDS011;54537;47.972;11.662;2023-04-24T05:48:53;0.63;;;0.30;;
66437;SDS011;54537;47.972;11.662;2023-04-24T05:51:20;0.93;;;0.50;;
66437;SDS011;54537;47.972;11.662;2023-04-24T05:53:46;1.58;;;0.60;;
66437;SDS011;54537;47.972;11.662;2023-04-24T05:56:13;1.35;;;0.70;;
66437;SDS011;54537;47.972;11.662;2023-04-24T05:58:41;0.55;;;0.55;;
66437;SDS011;54537;47.972;11.662;2023-04-24T06:01:07;0.50;;;0.50;;
66437;SDS011;54537;47.972;11.662;2023-04-24T06:03:34;0.50;;;0.50;;
66437;SDS011;54537;47.972;11.662;2023-04-24T06:06:00;0.20;;;0.20;;
66437;SDS011;54537;47.972;11.662;2023-04-24T06:08:27;0.57;;;0.57;;
66437;SDS011;54537;47.972;11.662;2023-04-24T06:10:53;0.45;;;0.43;;
66437;SDS011;54537;47.972;11.662;2023-04-24T06:13:20;0.95;;;0.63;;
66437;SDS011;54537;47.972;11.662;2023-04-24T06:15:48;0.90;;;0.60;;
66437;SDS011;54537;47.972;11.662;2023-04-24T06:18:14;0.45;;;0.45;;
66437;SDS011;54537;47.972;11.662;2023-04-24T06:20:41;0.88;;;0.70;;
66437;SDS011;54537;47.972;11.662;2023-04-24T06:23:07;1.27;;;0.70;;
66437;SDS011;54537;47.972;11.662;2023-04-24T06:25:34;0.68;;;0.55;;
66437;SDS011;54537;47.972;11.662;2023-04-24T06:28:00;0.65;;;0.52;;
66437;SDS011;54537;47.972;11.662;2023-04-24T06:30:27;0.40;;;0.30;;
66437;SDS011;54537;47.972;11.662;2023-04-24T06:32:55;1.85;;;1.00;;
66437;SDS011;54537;47.972;11.662;2023-04-24T06:35:22;0.63;;;0.40;;
66437;SDS011;54537;47.972;11.662;2023-04-24T06:37:48;0.40;;;0.40;;
66437;SDS011;54537;47.972;11.662;2023-04-24T06:40:15;0.93;;;0.60;;
66437;SDS011;54537;47.972;11.662;2023-04-24T06:42:43;0.60;;;0.60;;
66437;SDS011;54537;47.972;11.662;2023-04-24T06:45:10;0.57;;;0.50;;
66437;SDS011;54537;47.972;11.662;2023-04-24T06:47:36;0.65;;;0.50;;
66437;SDS011;54537;47.972;11.662;2023-04-24T06:50:05;0.98;;;0.68;;
66437;SDS011;54537;47.972;11.662;2023-04-24T06:52:32;2.28;;;0.95;;
66437;SDS011;54537;47.972;11.662;2023-04-24T06:54:59;0.65;;;0.60;;
66437;SDS011;54537;47.972;11.662;2023-04-24T06:57:26;1.27;;;0.40;;
66437;SDS011;54537;47.972;11.662;2023-04-24T06:59:53;1.60;;;0.57;;
66437;SDS011;54537;47.972;11.662;2023-04-24T07:02:19;0.93;;;0.50;;
66437;SDS011;54537;47.972;11.662;2023-04-24T07:04:46;0.55;;;0.55;;
66437;SDS011;54537;47.972;11.662;2023-04-24T07:07:14;0.50;;;0.40;;
66437;SDS011;54537;47.972;11.662;2023-04-24T07:09:41;0.52;;;0.50;;
66437;SDS011;54537;47.972;11.662;2023-04-24T07:12:09;0.63;;;0.30;;
66437;SDS011;54537;47.972;11.662;2023-04-24T07:14:36;1.52;;;0.52;;
66437;SDS011;54537;47.972;11.662;2023-04-24T07:17:02;1.15;;;0.60;;
66437;SDS011;54537;47.972;11.662;2023-04-24T07:19:29;0.90;;;0.43;;
66437;SDS011;54537;47.972;11.662;2023-04-24T07:21:56;2.08;;;0.60;;
66437;SDS011;54537;47.972;11.662;2023-04-24T07:24:24;0.77;;;0.68;;
66437;SDS011;54537;47.972;11.662;2023-04-24T07:26:51;2.08;;;1.00;;
66437;SDS011;54537;47.972;11.662;2023-04-24T07:29:18;4.28;;;0.93;;
66437;SDS011;54537;47.972;11.662;2023-04-24T07:31:44;2.00;;;0.70;;
66437;SDS011;54537;47.972;11.662;2023-04-24T07:34:11;0.50;;;0.50;;
66437;SDS011;54537;47.972;11.662;2023-04-24T07:36:37;0.50;;;0.50;;
66437;SDS011;54537;47.972;11.662;2023-04-24T07:39:04;1.42;;;0.65;;
66437;SDS011;54537;47.972;11.662;2023-04-24T07:41:32;1.17;;;0.50;;
66437;SDS011;54537;47.972;11.662;2023-04-24T07:43:58;0.40;;;0.40;;
66437;SDS011;54537;47.972;11.662;2023-04-24T07:46:25;1.40;;;0.50;;
66437;SDS011;54537;47.972;11.662;2023-04-24T07:48:54;0.40;;;0.40;;
66437;SDS011;54537;47.972;11.662;2023-04-24T07:51:21;1.38;;;0.63;;
66437;SDS011;54537;47.972;11.662;2023-04-24T07:53:47;0.40;;;0.40;;
66437;SDS011;54537;47.972;11.662;2023-04-24T07:56:14;0.80;;;0.60;;
66437;SDS011;54537;47.972;11.662;2023-04-24T07:58:43;0.63;;;0.63;;
66437;SDS011;54537;47.972;11.662;2023-04-24T08:01:09;0.80;;;0.50;;
66437;SDS011;54537;47.972;11.662;2023-04-24T08:03:36;2.47;;;0.30;;
66437;SDS011;54537;47.972;11.662;2023-04-24T08:06:02;0.77;;;0.60;;
66437;SDS011;54537;47.972;11.662;2023-04-24T08:08:29;1.15;;;0.52;;
66437;SDS011;54537;47.972;11.662;2023-04-24T08:10:56;1.95;;;0.47;;
66437;SDS011;54537;47.972;11.662;2023-04-24T08:13:22;0.43;;;0.43;;
66437;SDS011;54537;47.972;11.662;2023-04-24T08:15:50;1.10;;;0.50;;
66437;SDS011;54537;47.972;11.662;2023-04-24T08:18:17;0.82;;;0.50;;
66437;SDS011;54537;47.972;11.662;2023-04-24T08:20:43;1.65;;;0.60;;
66437;SDS011;54537;47.972;11.662;2023-04-24T08:23:10;1.27;;;0.63;;
66437;SDS011;54537;47.972;11.662;2023-04-24T08:25:36;0.70;;;0.40;;
66437;SDS011;54537;47.972;11.662;2023-04-24T08:28:03;1.10;;;0.52;;
66437;SDS011;54537;47.972;11.662;2023-04-24T08:30:31;2.00;;;0.70;;
66437;SDS011;54537;47.972;11.662;2023-04-24T08:32:59;1.33;;;0.60;;
66437;SDS011;54537;47.972;11.662;2023-04-24T08:35:26;0.50;;;0.47;;
66437;SDS011;54537;47.972;11.662;2023-04-24T08:37:52;0.50;;;0.50;;
66437;SDS011;54537;47.972;11.662;2023-04-24T08:40:20;1.58;;;0.70;;
66437;SDS011;54537;47.972;11.662;2023-04-24T08:42:49;0.50;;;0.47;;
66437;SDS011;54537;47.972;11.662;2023-04-24T08:45:16;1.65;;;0.73;;
66437;SDS011;54537;47.972;11.662;2023-04-24T08:47:43;2.78;;;0.80;;
66437;SDS011;54537;47.972;11.662;2023-04-24T08:50:11;2.55;;;0.70;;
66437;SDS011;54537;47.972;11.662;2023-04-24T08:52:38;1.00;;;0.80;;
66437;SDS011;54537;47.972;11.662;2023-04-24T08:55:05;2.63;;;0.77;;
66437;SDS011;54537;47.972;11.662;2023-04-24T08:57:32;0.60;;;0.60;;
66437;SDS011;54537;47.972;11.662;2023-04-24T08:59:58;1.08;;;0.70;;
66437;SDS011;54537;47.972;11.662;2023-04-24T09:02:25;1.17;;;0.70;;
66437;SDS011;54537;47.972;11.662;2023-04-24T09:04:52;1.50;;;0.90;;
66437;SDS011;54537;47.972;11.662;2023-04-24T09:07:20;1.67;;;0.80;;
66437;SDS011;54537;47.972;11.662;2023-04-24T09:09:48;2.92;;;0.93;;
66437;SDS011;54537;47.972;11.662;2023-04-24T09:12:16;4.03;;;1.10;;
66437;SDS011;54537;47.972;11.662;2023-04-24T09:14:43;1.30;;;0.90;;
66437;SDS011;54537;47.972;11.662;2023-04-24T09:17:10;0.93;;;0.80;;
66437;SDS011;54537;47.972;11.662;2023-04-24T09:19:37;1.55;;;1.00;;
66437;SDS011;54537;47.972;11.662;2023-04-24T09:22:04;1.17;;;0.80;;
66437;SDS011;54537;47.972;11.662;2023-04-24T09:24:33;1.23;;;0.82;;
66437;SDS011;54537;47.972;11.662;2023-04-24T09:27:00;2.88;;;1.08;;
66437;SDS011;54537;47.972;11.662;2023-04-24T09:29:27;1.25;;;0.45;;
66437;SDS011;54537;47.972;11.662;2023-04-24T09:31:54;2.05;;;0.90;;
66437;SDS011;54537;47.972;11.662;2023-04-24T09:34:20;1.20;;;0.85;;
66437;SDS011;54537;47.972;11.662;2023-04-24T09:36:47;1.25;;;1.00;;
66437;SDS011;54537;47.972;11.662;2023-04-24T09:39:14;3.10;;;0.80;;
66437;SDS011;54537;47.972;11.662;2023-04-24T09:41:46;1.50;;;0.80;;
66437;SDS011;54537;47.972;11.662;2023-04-24T09:44:14;2.40;;;0.73;;
66437;SDS011;54537;47.972;11.662;2023-04-24T09:46:42;0.80;;;0.80;;
66437;SDS011;54537;47.972;11.662;2023-04-24T09:49:10;3.47;;;1.00;;
66437;SDS011;54537;47.972;11.662;2023-04-24T09:51:39;0.77;;;0.70;;
66437;SDS011;54537;47.972;11.662;2023-04-24T09:54:11;1.83;;;1.00;;
66437;SDS011;54537;47.972;11.662;2023-04-24T09:56:41;1.77;;;0.95;;
66437;SDS011;54537;47.972;11.662;2023-04-24T09:59:10;1.85;;;0.82;;
66437;SDS011;54537;47.972;11.662;2023-04-24T10:01:37;1.15;;;0.77;;
66437;SDS011;54537;47.972;11.662;2023-04-24T10:04:08;1.48;;;0.77;;
66437;SDS011;54537;47.972;11.662;2023-04-24T10:06:41;1.10;;;1.00;;
66437;SDS011;54537;47.972;11.662;2023-04-24T10:09:08;0.88;;;0.88;;
66437;SDS011;54537;47.972;11.662;2023-04-24T10:11:36;2.90;;;1.20;;
66437;SDS011;54537;47.972;11.662;2023-04-24T10:14:03;1.25;;;0.77;;
66437;SDS011;54537;47.972;11.662;2023-04-24T10:16:31;0.90;;;0.80;;
66437;SDS011;54537;47.972;11.662;2023-04-24T10:18:58;1.38;;;0.88;;
66437;SDS011;54537;47.972;11.662;2023-04-24T10:21:26;0.93;;;0.75;;
66437;SDS011;54537;47.972;11.662;2023-04-24T10:23:52;1.63;;;0.73;;
66437;SDS011;54537;47.972;11.662;2023-04-24T10:26:20;1.25;;;0.70;;
66437;SDS011;54537;47.972;11.662;2023-04-24T10:28:47;2.55;;;1.05;;
66437;SDS011;54537;47.972;11.662;2023-04-24T10:31:14;1.00;;;0.90;;
66437;SDS011;54537;47.972;11.662;2023-04-24T10:33:42;1.65;;;0.70;;
66437;SDS011;54537;47.972;11.662;2023-04-24T10:36:09;0.95;;;0.68;;
66437;SDS011;54537;47.972;11.662;2023-04-24T10:38:36;2.15;;;1.17;;
66437;SDS011;54537;47.972;11.662;2023-04-24T10:41:08;2.72;;;1.30;;
66437;SDS011;54537;47.972;11.662;2023-04-24T10:43:39;1.15;;;1.00;;
66437;SDS011;54537;47.972;11.662;2023-04-24T10:46:06;2.60;;;0.80;;
66437;SDS011;54537;47.972;11.662;2023-04-24T10:48:33;3.70;;;0.80;;
66437;SDS011;54537;47.972;11.662;2023-04-24T10:51:01;1.10;;;0.73;;
66437;SDS011;54537;47.972;11.662;2023-04-24T10:53:28;1.75;;;1.10;;
66437;SDS011;54537;47.972;11.662;2023-04-24T10:55:59;1.38;;;0.95;;
66437;SDS011;54537;47.972;11.662;2023-04-24T10:58:36;1.60;;;1.00;;
66437;SDS011;54537;47.972;11.662;2023-04-24T11:01:05;2.00;;;1.17;;
66437;SDS011;54537;47.972;11.662;2023-04-24T11:03:32;2.85;;;1.15;;
66437;SDS011;54537;47.972;11.662;2023-04-24T11:06:01;3.17;;;0.90;;
66437;SDS011;54537;47.972;11.662;2023-04-24T11:08:29;3.05;;;0.73;;
66437;SDS011;54537;47.972;11.662;2023-04-24T11:10:59;3.08;;;1.02;;
66437;SDS011;54537;47.972;11.662;2023-04-24T11:13:28;1.17;;;0.77;;
66437;SDS011;54537;47.972;11.662;2023-04-24T11:16:15;1.10;;;0.80;;
66437;SDS011;54537;47.972;11.662;2023-04-24T11:18:42;0.70;;;0.70;;
66437;SDS011;54537;47.972;11.662;2023-04-24T11:21:12;0.60;;;0.60;;
66437;SDS011;54537;47.972;11.662;2023-04-24T11:23:39;2.95;;;0.73;;
66437;SDS011;54537;47.972;11.662;2023-04-24T11:26:17;1.08;;;0.50;;
66437;SDS011;54537;47.972;11.662;2023-04-24T11:28:45;0.70;;;0.65;;
66437;SDS011;54537;47.972;11.662;2023-04-24T11:34:05;2.15;;;0.80;;
66437;SDS011;54537;47.972;11.662;2023-04-24T11:36:34;1.10;;;0.90;;
66437;SDS011;54537;47.972;11.662;2023-04-24T11:39:01;0.65;;;0.60;;
66437;SDS011;54537;47.972;11.662;2023-04-24T11:41:28;1.05;;;0.70;;
66437;SDS011;54537;47.972;11.662;2023-04-24T11:43:55;2.03;;;0.60;;
66437;SDS011;54537;47.972;11.662;2023-04-24T11:46:22;1.27;;;0.80;;
66437;SDS011;54537;47.972;11.662;2023-04-24T11:48:48;2.20;;;1.02;;
66437;SDS011;54537;47.972;11.662;2023-04-24T11:51:15;1.30;;;0.90;;
66437;SDS011;54537;47.972;11.662;2023-04-24T11:53:43;1.23;;;0.60;;
66437;SDS011;54537;47.972;11.662;2023-04-24T11:56:09;1.67;;;0.80;;
66437;SDS011;54537;47.972;11.662;2023-04-24T11:58:36;1.10;;;0.80;;
66437;SDS011;54537;47.972;11.662;2023-04-24T12:01:03;1.23;;;0.80;;
66437;SDS011;54537;47.972;11.662;2023-04-24T12:03:30;1.00;;;0.90;;
66437;SDS011;54537;47.972;11.662;2023-04-24T12:06:06;1.33;;;1.00;;
66437;SDS011;54537;47.972;11.662;2023-04-24T12:08:34;3.13;;;1.27;;
66437;SDS011;54537;47.972;11.662;2023-04-24T12:11:02;2.38;;;1.30;;
66437;SDS011;54537;47.972;11.662;2023-04-24T12:13:29;2.63;;;1.08;;
66437;SDS011;54537;47.972;11.662;2023-04-24T12:15:56;2.45;;;1.10;;
66437;SDS011;54537;47.972;11.662;2023-04-24T12:18:23;1.80;;;0.90;;
66437;SDS011;54537;47.972;11.662;2023-04-24T12:20:50;2.08;;;1.35;;
66437;SDS011;54537;47.972;11.662;2023-04-24T12:23:16;2.55;;;1.13;;
66437;SDS011;54537;47.972;11.662;2023-04-24T12:25:55;1.45;;;1.15;;
66437;SDS011;54537;47.972;11.662;2023-04-24T12:28:34;2.78;;;0.90;;
66437;SDS011;54537;47.972;11.662;2023-04-24T12:31:01;4.30;;;1.33;;
66437;SDS011;54537;47.972;11.662;2023-04-24T12:33:28;4.38;;;1.80;;
66437;SDS011;54537;47.972;11.662;2023-04-24T12:35:58;8.77;;;3.00;;
66437;SDS011;54537;47.972;11.662;2023-04-24T12:38:26;7.55;;;3.38;;
66437;SDS011;54537;47.972;11.662;2023-04-24T12:41:01;4.28;;;2.78;;
66437;SDS011;54537;47.972;11.662;2023-04-24T12:43:29;3.15;;;1.80;;
66437;SDS011;54537;47.972;11.662;2023-04-24T12:45:56;3.10;;;1.50;;
66437;SDS011;54537;47.972;11.662;2023-04-24T12:48:24;3.47;;;1.52;;
66437;SDS011;54537;47.972;11.662;2023-04-24T12:50:50;4.38;;;1.52;;
66437;SDS011;54537;47.972;11.662;2023-04-24T12:53:17;2.45;;;1.50;;
66437;SDS011;54537;47.972;11.662;2023-04-24T12:55:43;2.70;;;1.33;;
66437;SDS011;54537;47.972;11.662;2023-04-24T12:58:12;1.95;;;1.48;;
66437;SDS011;54537;47.972;11.662;2023-04-24T13:00:40;2.70;;;1.42;;
66437;SDS011;54537;47.972;11.662;2023-04-24T13:03:08;4.90;;;1.80;;
66437;SDS011;54537;47.972;11.662;2023-04-24T13:05:34;3.67;;;1.90;;
66437;SDS011;54537;47.972;11.662;2023-04-24T13:08:01;4.22;;;1.55;;
66437;SDS011;54537;47.972;11.662;2023-04-24T13:10:27;2.90;;;1.13;;
66437;SDS011;54537;47.972;11.662;2023-04-24T13:12:54;2.15;;;0.90;;
66437;SDS011;54537;47.972;11.662;2023-04-24T13:15:21;2.88;;;1.52;;
66437;SDS011;54537;47.972;11.662;2023-04-24T13:17:49;2.55;;;1.17;;
66437;SDS011;54537;47.972;11.662;2023-04-24T13:20:16;2.90;;;1.25;;
66437;SDS011;54537;47.972;11.662;2023-04-24T13:22:43;2.38;;;1.50;;
66437;SDS011;54537;47.972;11.662;2023-04-24T13:25:10;4.07;;;1.60;;
66437;SDS011;54537;47.972;11.662;2023-04-24T13:27:37;3.15;;;1.20;;
66437;SDS011;54537;47.972;11.662;2023-04-24T13:30:04;2.45;;;1.30;;
66437;SDS011;54537;47.972;11.662;2023-04-24T13:32:32;2.17;;;1.20;;
66437;SDS011;54537;47.972;11.662;2023-04-24T13:35:01;2.00;;;1.10;;
66437;SDS011;54537;47.972;11.662;2023-04-24T13:37:28;1.77;;;0.95;;
66437;SDS011;54537;47.972;11.662;2023-04-24T13:39:56;2.17;;;1.00;;
66437;SDS011;54537;47.972;11.662;2023-04-24T13:42:22;1.92;;;1.00;;
66437;SDS011;54537;47.972;11.662;2023-04-24T13:44:49;1.55;;;1.20;;
66437;SDS011;54537;47.972;11.662;2023-04-24T13:47:16;2.00;;;1.25;;
66437;SDS011;54537;47.972;11.662;2023-04-24T13:49:42;6.43;;;1.52;;
66437;SDS011;54537;47.972;11.662;2023-04-24T13:52:10;2.40;;;1.30;;
66437;SDS011;54537;47.972;11.662;2023-04-24T13:54:37;1.63;;;1.38;;
66437;SDS011;54537;47.972;11.662;2023-04-24T13:57:03;2.72;;;1.60;;
66437;SDS011;54537;47.972;11.662;2023-04-24T13:59:30;3.38;;;1.77;;
66437;SDS011;54537;47.972;11.662;2023-04-24T14:01:56;4.47;;;1.90;;
66437;SDS011;54537;47.972;11.662;2023-04-24T14:04:23;4.57;;;1.65;;
66437;SDS011;54537;47.972;11.662;2023-04-24T14:06:49;4.05;;;1.67;;
66437;SDS011;54537;47.972;11.662;2023-04-24T14:09:17;4.53;;;1.85;;
66437;SDS011;54537;47.972;11.662;2023-04-24T14:11:44;2.35;;;1.58;;
66437;SDS011;54537;47.972;11.662;2023-04-24T14:14:10;3.38;;;1.83;;
66437;SDS011;54537;47.972;11.662;2023-04-24T14:16:37;3.38;;;1.67;;
66437;SDS011;54537;47.972;11.662;2023-04-24T14:19:03;3.55;;;1.65;;
66437;SDS011;54537;47.972;11.662;2023-04-24T14:21:31;6.47;;;2.03;;
66437;SDS011;54537;47.972;11.662;2023-04-24T14:23:58;3.88;;;1.80;;
66437;SDS011;54537;47.972;11.662;2023-04-24T14:26:26;2.17;;;1.50;;
66437;SDS011;54537;47.972;11.662;2023-04-24T14:28:53;2.08;;;1.30;;
66437;SDS011;54537;47.972;11.662;2023-04-24T14:31:20;5.53;;;2.03;;
66437;SDS011;54537;47.972;11.662;2023-04-24T14:33:46;2.90;;;1.60;;
66437;SDS011;54537;47.972;11.662;2023-04-24T14:36:13;4.10;;;1.80;;